Time;durP1;ratioP1;P1;durP2;ratioP2;P2;SDS_P1;SDS_P2;PMS_P1;PMS_P2;Temp;Humidity;BMP_temperature;BMP_pressure;BME280_temperature;BME280_humidity;BME280_pressure;Samples;Min_cycle;Max_cycle;Signal;HPM_P1;HPM_P2
2022/10/01 00:00:48;;;;;;;1.48;1.20;;;;;;;10.69;97.26;100405.50;6236170;28;20053;-75
2022/10/01 00:03:50;;;;;;;2.05;0.80;;;;;;;10.73;97.39;100402.59;6247368;28;20425;-75
2022/10/01 00:06:51;;;;;;;1.38;0.88;;;;;;;10.71;96.47;100398.34;6248137;28;20053;-75
2022/10/01 00:09:52;;;;;;;1.60;0.90;;;;;;;10.76;96.68;100391.03;6247455;28;20053;-75
2022/10/01 00:12:54;;;;;;;1.23;1.10;;;;;;;10.74;97.39;100385.88;6247663;28;20504;-75
2022/10/01 00:15:58;;;;;;;1.08;0.80;;;;;;;10.72;98.00;100379.88;6247293;28;20050;-75
2022/10/01 00:18:59;;;;;;;1.85;1.13;;;;;;;10.70;98.05;100384.38;6247847;28;20052;-75
2022/10/01 00:22:01;;;;;;;2.65;1.00;;;;;;;10.70;98.78;100370.38;6247163;28;20049;-75
2022/10/01 00:25:03;;;;;;;1.88;1.20;;;;;;;10.71;97.98;100370.28;6247086;28;20520;-75
2022/10/01 00:28:05;;;;;;;2.28;1.00;;;;;;;10.72;97.15;100363.25;6247413;28;20046;-75
2022/10/01 00:31:09;;;;;;;1.77;1.05;;;;;;;10.75;97.46;100352.56;6246981;28;20515;-75
2022/10/01 00:34:13;;;;;;;4.07;1.30;;;;;;;10.76;96.12;100349.81;6247009;28;20520;-75
2022/10/01 00:37:16;;;;;;;1.63;1.23;;;;;;;10.76;96.80;100341.09;6247149;28;20061;-75
2022/10/01 00:40:19;;;;;;;1.20;1.00;;;;;;;10.81;96.46;100346.91;6247193;28;20045;-75
2022/10/01 00:43:21;;;;;;;1.45;1.30;;;;;;;10.80;96.70;100340.81;6247178;28;20049;-75
2022/10/01 00:46:28;;;;;;;1.92;1.15;;;;;;;10.81;95.84;100342.53;6246904;28;20064;-75
2022/10/01 00:49:33;;;;;;;0.75;0.75;;;;;;;10.81;96.78;100332.00;6246980;28;20064;-75
2022/10/01 00:52:40;;;;;;;1.70;0.93;;;;;;;10.84;95.19;100325.72;6246625;28;20060;-75
2022/10/01 00:55:44;;;;;;;1.60;1.02;;;;;;;10.83;95.24;100319.59;6246506;28;20045;-75
2022/10/01 00:58:46;;;;;;;1.60;1.00;;;;;;;10.84;95.92;100318.66;6246921;28;20049;-75
2022/10/01 01:01:49;;;;;;;1.70;1.20;;;;;;;10.84;97.00;100318.66;6253239;28;20041;-75
2022/10/01 01:04:50;;;;;;;1.40;1.10;;;;;;;10.82;95.37;100311.81;6258667;28;20047;-74
2022/10/01 01:07:53;;;;;;;3.90;1.23;;;;;;;10.84;95.44;100309.94;6258079;28;20504;-75
2022/10/01 01:11:04;;;;;;;4.82;1.20;;;;;;;10.90;95.48;100297.28;6246796;28;20132;-75
2022/10/01 01:14:14;;;;;;;2.53;1.17;;;;;;;10.92;94.83;100297.16;6246346;28;20046;-75
2022/10/01 01:17:24;;;;;;;2.05;0.90;;;;;;;10.97;94.74;100294.25;6246762;28;20053;-75
2022/10/01 01:20:33;;;;;;;;;;;;;;;10.96;95.54;100293.41;6246876;28;20049;-75
2022/10/01 01:24:34;;;;;;;2.75;1.20;;;;;;;10.96;94.38;100290.78;6246731;28;19928;-75
2022/10/01 01:27:42;;;;;;;2.65;1.10;;;;;;;10.97;94.18;100281.94;6253701;28;20042;-75
2022/10/01 01:30:48;;;;;;;2.33;1.05;;;;;;;10.97;93.52;100274.06;6255571;28;20441;-75
2022/10/01 01:33:54;;;;;;;1.10;1.00;;;;;;;10.99;93.43;100264.31;6255735;28;20072;-75
2022/10/01 01:37:00;;;;;;;1.98;1.10;;;;;;;11.03;93.62;100263.16;6256118;28;20506;-75
2022/10/01 01:40:05;;;;;;;1.77;0.90;;;;;;;11.02;94.61;100258.00;6256693;28;20041;-75
2022/10/01 01:43:12;;;;;;;3.13;1.30;;;;;;;11.00;94.56;100255.47;6258663;28;20041;-75
2022/10/01 01:46:16;;;;;;;1.92;1.08;;;;;;;11.01;94.18;100253.69;6270827;28;20057;-75
2022/10/01 01:49:19;;;;;;;1.90;0.88;;;;;;;11.00;93.75;100238.84;6271129;28;20041;-75
2022/10/01 01:52:20;;;;;;;1.55;1.10;;;;;;;11.00;94.75;100244.97;6270718;28;20178;-75
2022/10/01 01:55:24;;;;;;;1.65;1.00;;;;;;;11.00;96.02;100239.69;6270866;28;20056;-75
2022/10/01 01:58:27;;;;;;;2.78;1.13;;;;;;;11.00;95.70;100234.44;6270903;28;20497;-75
2022/10/01 02:01:37;;;;;;;2.00;1.25;;;;;;;10.98;94.92;100233.69;6270756;28;20449;-75
2022/10/01 02:04:42;;;;;;;1.40;1.00;;;;;;;11.00;96.70;100218.66;6270400;28;20068;-75
2022/10/01 02:08:04;;;;;;;1.48;0.77;;;;;;;11.00;96.88;100217.81;6270975;28;20127;-75
2022/10/01 02:11:21;;;;;;;2.30;1.13;;;;;;;11.00;96.87;100213.41;6270525;28;20052;-75
2022/10/01 02:14:34;;;;;;;1.10;1.00;;;;;;;10.97;97.22;100208.34;6272555;28;20080;-75
2022/10/01 02:17:49;;;;;;;1.55;0.95;;;;;;;10.97;98.72;100208.34;6276012;28;20052;-75
2022/10/01 02:20:56;;;;;;;5.22;1.48;;;;;;;10.94;97.26;100200.63;6275059;28;20067;-75
2022/10/01 02:24:03;;;;;;;2.08;1.20;;;;;;;10.96;98.59;100196.13;6274891;28;20423;-75
2022/10/01 02:27:10;;;;;;;1.67;1.35;;;;;;;10.94;98.34;100190.13;6275040;28;20385;-75
2022/10/01 02:30:12;;;;;;;3.25;1.25;;;;;;;10.90;98.54;100184.25;6274734;28;20657;-75
2022/10/01 02:33:21;;;;;;;2.78;1.25;;;;;;;10.92;98.54;100179.72;6274844;28;20049;-75
2022/10/01 02:36:25;;;;;;;1.27;1.07;;;;;;;10.92;98.96;100174.44;6261141;28;20052;-75
2022/10/01 02:39:29;;;;;;;1.98;1.17;;;;;;;10.95;99.18;100172.59;6250012;28;20056;-75
2022/10/01 02:42:31;;;;;;;4.63;1.50;;;;;;;10.92;97.04;100171.81;6249511;28;20042;-75
2022/10/01 02:45:36;;;;;;;2.15;1.30;;;;;;;10.95;97.44;100172.59;6249007;28;20527;-75
2022/10/01 02:48:39;;;;;;;1.85;1.30;;;;;;;10.93;96.45;100163.00;6250089;28;20046;-75
2022/10/01 02:51:48;;;;;;;2.20;1.52;;;;;;;10.92;97.81;100163.09;6249425;28;20421;-75
2022/10/01 02:54:53;;;;;;;2.45;0.95;;;;;;;10.89;98.66;100158.88;6249558;28;20060;-75
2022/10/01 02:57:55;;;;;;;2.90;1.00;;;;;;;10.92;100.00;100155.22;6250109;28;20057;-75
2022/10/01 03:00:56;;;;;;;3.38;1.17;;;;;;;10.88;100.00;100149.31;6249053;28;20053;-75
2022/10/01 03:03:59;;;;;;;5.20;1.13;;;;;;;10.85;100.00;100153.91;6249382;28;20045;-75
2022/10/01 03:07:02;;;;;;;1.63;1.30;;;;;;;10.81;100.00;100149.78;6249492;28;20057;-75
2022/10/01 03:10:05;;;;;;;1.52;1.10;;;;;;;10.80;100.00;100134.97;6249175;28;20136;-75
2022/10/01 03:13:07;;;;;;;1.48;0.98;;;;;;;10.79;100.00;100125.41;6249215;28;20049;-75
2022/10/01 03:16:08;;;;;;;1.67;0.95;;;;;;;10.75;100.00;100126.53;6248964;28;20438;-75
2022/10/01 03:19:11;;;;;;;1.98;1.45;;;;;;;10.75;100.00;100129.16;6249187;28;20056;-75
2022/10/01 03:22:14;;;;;;;1.95;1.10;;;;;;;10.72;100.00;100124.09;6248702;28;20516;-75
2022/10/01 03:25:16;;;;;;;1.52;1.15;;;;;;;10.70;100.00;100113.69;6248482;28;20056;-75
2022/10/01 03:28:17;;;;;;;1.80;1.25;;;;;;;10.68;100.00;100114.75;6248989;28;20390;-74
2022/10/01 03:31:19;;;;;;;1.70;1.23;;;;;;;10.63;100.00;100120.28;6248649;28;20041;-75
2022/10/01 03:34:22;;;;;;;3.25;1.58;;;;;;;10.60;100.00;100110.81;6248303;28;20045;-75
2022/10/01 03:37:24;;;;;;;6.97;1.30;;;;;;;10.55;100.00;100102.38;6249013;28;20124;-75
2022/10/01 03:40:25;;;;;;;6.28;1.35;;;;;;;10.50;100.00;100100.97;6248257;28;20049;-75
2022/10/01 03:43:27;;;;;;;2.28;1.52;;;;;;;10.47;100.00;100078.38;6248415;28;20420;-74
2022/10/01 03:46:29;;;;;;;1.30;1.10;;;;;;;10.44;100.00;100082.97;6248085;28;20536;-74
2022/10/01 03:49:33;;;;;;;2.28;1.67;;;;;;;10.37;100.00;100074.66;6248495;28;20068;-74
2022/10/01 03:52:34;;;;;;;3.22;1.40;;;;;;;10.33;100.00;100060.84;6247923;28;20051;-74
2022/10/01 03:55:35;;;;;;;1.55;1.35;;;;;;;10.33;100.00;100052.97;6247934;28;20045;-74
2022/10/01 03:58:37;;;;;;;2.38;1.40;;;;;;;10.26;100.00;100040.31;6248349;28;20060;-74
2022/10/01 04:01:39;;;;;;;2.05;1.30;;;;;;;10.25;100.00;100038.66;6247873;28;20060;-74
2022/10/01 04:04:41;;;;;;;2.47;1.55;;;;;;;10.20;100.00;100035.44;6247713;28;20042;-74
2022/10/01 04:07:43;;;;;;;2.15;1.58;;;;;;;10.18;100.00;100032.06;6248089;28;20049;-76
2022/10/01 04:10:44;;;;;;;3.25;1.38;;;;;;;10.14;100.00;100034.88;6247624;28;20049;-76
2022/10/01 04:13:46;;;;;;;3.83;1.50;;;;;;;10.12;100.00;100022.78;6247447;28;20049;-77
2022/10/01 04:16:49;;;;;;;2.22;1.30;;;;;;;10.06;100.00;100025.81;6247995;28;20049;-76
2022/10/01 04:19:52;;;;;;;2.35;1.90;;;;;;;10.02;100.00;100011.19;6247637;28;20666;-77
2022/10/01 04:22:53;;;;;;;3.90;1.73;;;;;;;10.00;100.00;100010.44;6247723;28;20053;-76
2022/10/01 04:25:59;;;;;;;4.50;1.65;;;;;;;9.96;100.00;100007.16;6247183;28;20404;-76
2022/10/01 04:29:00;;;;;;;4.80;1.77;;;;;;;9.97;100.00;99997.50;6247743;28;20131;-76
2022/10/01 04:32:02;;;;;;;4.13;1.75;;;;;;;9.95;100.00;99999.38;6247148;28;20052;-76
2022/10/01 04:35:07;;;;;;;2.53;1.80;;;;;;;9.94;100.00;99997.69;6247393;28;20128;-76
2022/10/01 04:38:13;;;;;;;2.53;1.45;;;;;;;9.95;100.00;100000.25;6246881;28;20050;-76
2022/10/01 04:41:15;;;;;;;3.05;1.75;;;;;;;9.93;100.00;99986.34;6247088;28;20060;-76
2022/10/01 04:44:18;;;;;;;1.65;1.55;;;;;;;9.91;100.00;99985.63;6246784;28;20485;-76
2022/10/01 04:47:19;;;;;;;3.50;1.85;;;;;;;9.87;100.00;99981.50;6247142;28;20072;-75
2022/10/01 04:50:24;;;;;;;2.08;1.60;;;;;;;9.84;100.00;99977.28;6246819;28;20045;-73
2022/10/01 04:53:25;;;;;;;3.40;2.15;;;;;;;9.83;100.00;99970.34;6246852;28;20523;-76
2022/10/01 04:56:27;;;;;;;2.47;1.48;;;;;;;9.84;100.00;99973.81;6246686;28;20050;-76
2022/10/01 04:59:28;;;;;;;3.30;1.95;;;;;;;9.81;100.00;99969.63;6246907;28;20046;-76
2022/10/01 05:02:31;;;;;;;3.35;2.05;;;;;;;9.78;100.00;99961.91;6246597;28;20148;-76
2022/10/01 05:05:34;;;;;;;3.45;1.92;;;;;;;9.73;100.00;99950.03;6246503;28;20053;-76
2022/10/01 05:08:36;;;;;;;5.65;1.77;;;;;;;9.69;100.00;99925.78;6247009;28;20057;-76
2022/10/01 05:11:38;;;;;;;2.28;1.73;;;;;;;9.66;100.00;99920.69;6246109;28;20049;-76
2022/10/01 05:14:40;;;;;;;2.92;1.88;;;;;;;9.61;100.00;99910.50;6246532;28;20053;-75
2022/10/01 05:17:42;;;;;;;3.90;2.03;;;;;;;9.57;100.00;99897.69;6246856;28;20054;-76
2022/10/01 05:20:44;;;;;;;3.17;1.70;;;;;;;9.48;100.00;99898.25;6246399;28;20056;-75
2022/10/01 05:23:46;;;;;;;2.50;1.77;;;;;;;9.50;100.00;99884.13;6246305;28;20061;-76
2022/10/01 05:26:47;;;;;;;5.22;1.95;;;;;;;9.51;100.00;99869.22;6246505;28;20053;-75
2022/10/01 05:29:49;;;;;;;3.38;2.25;;;;;;;9.53;100.00;99880.44;6246028;28;20570;-75
2022/10/01 05:32:55;;;;;;;4.35;2.08;;;;;;;9.51;100.00;99882.34;6246346;28;20056;-75
2022/10/01 05:35:58;;;;;;;4.47;1.67;;;;;;;9.50;100.00;99902.47;6246053;28;20045;-75
2022/10/01 05:38:59;;;;;;;2.95;1.98;;;;;;;9.50;100.00;99905.09;6246467;28;20054;-75
2022/10/01 05:42:01;;;;;;;3.75;1.85;;;;;;;9.52;100.00;99897.13;6246080;28;20045;-75
2022/10/01 05:45:03;;;;;;;2.95;2.10;;;;;;;9.50;100.00;99893.78;6245910;28;20052;-75
2022/10/01 05:48:06;;;;;;;3.70;2.35;;;;;;;9.50;100.00;99906.88;6246594;28;20050;-75
2022/10/01 05:51:09;;;;;;;3.90;1.85;;;;;;;9.53;100.00;99899.63;6250760;28;20057;-75
2022/10/01 05:54:12;;;;;;;2.55;1.75;;;;;;;9.56;100.00;99890.75;6250908;28;20489;-75
2022/10/01 05:57:14;;;;;;;2.17;1.35;;;;;;;9.51;100.00;99883.16;6251278;28;20081;-75
2022/10/01 06:00:15;;;;;;;2.00;1.38;;;;;;;9.51;100.00;99880.53;6250901;28;20054;-76
2022/10/01 06:03:17;;;;;;;2.55;1.52;;;;;;;9.57;100.00;99860.94;6250976;28;20049;-75
2022/10/01 06:06:22;;;;;;;1.27;1.08;;;;;;;9.56;100.00;99859.28;6250765;28;20521;-75
2022/10/01 06:09:23;;;;;;;1.55;1.17;;;;;;;9.59;100.00;99836.31;6250903;28;20056;-75
2022/10/01 06:12:25;;;;;;;1.50;1.33;;;;;;;9.58;100.00;99831.16;6250412;28;20404;-75
2022/10/01 06:15:28;;;;;;;2.00;1.27;;;;;;;9.58;100.00;99852.13;6251141;28;20045;-75
2022/10/01 06:18:29;;;;;;;1.20;1.10;;;;;;;9.58;100.00;99849.50;6263727;28;20053;-75
2022/10/01 06:21:32;;;;;;;2.17;1.42;;;;;;;9.64;100.00;99834.25;6266749;28;20041;-75
2022/10/01 06:24:34;;;;;;;3.47;1.40;;;;;;;9.63;100.00;99848.31;6265140;28;20418;-75
2022/10/01 06:27:35;;;;;;;1.70;1.58;;;;;;;9.63;100.00;99840.44;6259931;28;20041;-75
2022/10/01 06:30:38;;;;;;;1.15;1.05;;;;;;;9.60;100.00;99856.34;6261139;28;20056;-75
2022/10/01 06:33:40;;;;;;;1.30;1.00;;;;;;;9.63;100.00;99848.31;6260922;28;20041;-75
2022/10/01 06:36:43;;;;;;;1.90;1.02;;;;;;;9.62;100.00;99849.22;6261187;28;20806;-75
2022/10/01 06:39:44;;;;;;;2.08;1.17;;;;;;;9.62;100.00;99846.59;6259310;28;20048;-74
2022/10/01 06:42:47;;;;;;;2.25;1.23;;;;;;;9.64;100.00;99841.28;6261165;28;20425;-73
2022/10/01 06:45:48;;;;;;;2.35;1.13;;;;;;;9.62;100.00;99845.75;6262526;28;20049;-75
2022/10/01 06:48:50;;;;;;;1.73;1.45;;;;;;;9.63;100.00;99836.97;6261949;28;20049;-75
2022/10/01 06:55:12;;;;;;;1.90;1.15;;;;;;;9.64;100.00;99841.28;6261523;28;20501;-75
2022/10/01 06:58:15;;;;;;;1.77;1.40;;;;;;;9.68;100.00;99837.50;6256463;28;20055;-75
2022/10/01 07:01:19;;;;;;;1.42;1.13;;;;;;;9.68;100.00;99834.06;6260013;28;20424;-75
2022/10/01 07:04:21;;;;;;;2.33;1.30;;;;;;;9.68;100.00;99827.03;6261906;28;20056;-75
2022/10/01 07:07:24;;;;;;;2.40;1.33;;;;;;;9.68;100.00;99824.41;6269630;28;20056;-75
2022/10/01 07:10:25;;;;;;;2.15;0.90;;;;;;;9.70;100.00;99834.78;6273716;28;20048;-75
2022/10/01 07:13:27;;;;;;;1.75;1.02;;;;;;;9.72;100.00;99825.88;6274395;28;20064;-75
2022/10/01 07:16:28;;;;;;;1.27;1.02;;;;;;;9.74;100.00;99831.03;6273521;28;20049;-74
2022/10/01 07:19:30;;;;;;;1.40;1.00;;;;;;;9.75;100.00;99827.44;6273895;28;20045;-75
2022/10/01 07:22:33;;;;;;;1.83;0.90;;;;;;;9.77;100.00;99834.31;6273923;28;20095;-75
2022/10/01 07:25:35;;;;;;;2.17;1.02;;;;;;;9.79;100.00;99821.06;6273411;28;20049;-75
2022/10/01 07:28:36;;;;;;;2.17;1.08;;;;;;;9.80;100.00;99831.47;6274194;28;20535;-76
2022/10/01 07:31:37;;;;;;;1.30;1.02;;;;;;;9.82;100.00;99839.25;6273085;28;20049;-75
2022/10/01 07:34:39;;;;;;;2.03;1.40;;;;;;;9.83;100.00;99833.88;6273385;28;20056;-76
2022/10/01 07:37:42;;;;;;;5.65;0.93;;;;;;;9.84;100.00;99840.81;6273393;28;20060;-76
2022/10/01 07:40:44;;;;;;;1.00;0.90;;;;;;;9.86;100.00;99832.88;6273236;28;20045;-75
2022/10/01 07:43:46;;;;;;;0.90;0.80;;;;;;;9.90;100.00;99836.94;6272753;28;20053;-76
2022/10/01 07:46:48;;;;;;;2.38;0.95;;;;;;;9.90;100.00;99836.94;6273567;28;20110;-75
2022/10/01 07:49:49;;;;;;;3.03;1.00;;;;;;;9.94;100.00;99843.69;6272776;28;20052;-75
2022/10/01 07:52:54;;;;;;;1.10;1.00;;;;;;;9.99;100.00;99844.25;6273257;28;20053;-75
2022/10/01 07:55:56;;;;;;;0.82;0.82;;;;;;;10.04;100.00;99852.66;6272688;28;20508;-75
2022/10/01 07:58:58;;;;;;;1.25;0.90;;;;;;;10.06;100.00;99847.31;6273339;28;20516;-76
2022/10/01 08:02:00;;;;;;;1.33;1.23;;;;;;;10.08;100.00;99854.16;6272481;28;20389;-76
2022/10/01 08:05:20;;;;;;;1.67;1.10;;;;;;;10.07;100.00;99852.44;6272608;28;20056;-75
2022/10/01 08:08:23;;;;;;;0.73;0.70;;;;;;;10.12;100.00;99852.97;6273061;28;20488;-75
2022/10/01 08:11:24;;;;;;;1.40;1.10;;;;;;;10.15;100.00;99855.41;6271206;28;20136;-76
2022/10/01 08:14:27;;;;;;;0.80;0.80;;;;;;;10.14;100.00;99850.28;6272908;28;20056;-74
2022/10/01 08:17:28;;;;;;;1.35;0.90;;;;;;;10.17;100.00;99857.91;6272490;28;20045;-74
2022/10/01 08:20:31;;;;;;;1.92;0.90;;;;;;;10.21;100.00;99859.41;6272387;28;20045;-74
2022/10/01 08:23:34;;;;;;;1.70;1.23;;;;;;;10.25;100.00;99857.47;6272314;28;20053;-74
2022/10/01 08:26:35;;;;;;;5.32;0.82;;;;;;;10.28;100.00;99852.84;6272285;28;20053;-73
2022/10/01 08:29:38;;;;;;;1.45;0.80;;;;;;;10.33;100.00;99852.53;6272034;28;20501;-73
2022/10/01 08:32:39;;;;;;;0.43;0.43;;;;;;;10.40;100.00;99852.03;6272410;28;20094;-72
2022/10/01 08:35:43;;;;;;;1.92;1.17;;;;;;;10.48;100.00;99840.16;6271661;28;20049;-72
2022/10/01 08:38:47;;;;;;;1.00;0.90;;;;;;;10.60;100.00;99847.22;6272267;28;20144;-72
2022/10/01 08:41:58;;;;;;;0.95;0.85;;;;;;;10.70;100.00;99850.91;6271702;28;20052;-73
2022/10/01 08:45:04;;;;;;;3.33;0.90;;;;;;;10.76;100.00;99855.72;6271843;28;20492;-73
2022/10/01 08:48:11;;;;;;;1.10;1.00;;;;;;;10.81;100.00;99861.53;6271873;28;20045;-73
2022/10/01 08:51:21;;;;;;;0.80;0.80;;;;;;;10.90;100.00;99860.03;6271446;28;20056;-73
2022/10/01 08:54:32;;;;;;;2.85;1.20;;;;;;;10.97;100.00;99856.03;6271481;28;20142;-72
2022/10/01 08:57:39;;;;;;;1.35;1.08;;;;;;;11.04;100.00;99856.47;6271917;28;20056;-73
2022/10/01 09:00:44;;;;;;;1.83;1.17;;;;;;;11.07;100.00;99861.50;6271309;28;20045;-72
2022/10/01 09:03:46;;;;;;;1.60;1.27;;;;;;;11.12;100.00;99870.75;6271408;28;20056;-73
2022/10/01 09:06:51;;;;;;;3.30;1.50;;;;;;;11.17;100.00;99870.44;6261230;28;20943;-72
2022/10/01 09:10:01;;;;;;;1.70;1.40;;;;;;;11.22;100.00;99872.72;6230102;28;20434;-72
2022/10/01 09:13:27;;;;;;;2.03;1.45;;;;;;;11.27;100.00;99878.53;6245012;28;20041;-72
2022/10/01 09:16:37;;;;;;;1.90;1.70;;;;;;;11.30;100.00;99871.25;6260663;28;20044;-73
2022/10/01 09:19:53;;;;;;;1.67;1.35;;;;;;;11.36;100.00;99878.72;6262536;28;20151;-72
2022/10/01 09:23:11;;;;;;;1.88;1.45;;;;;;;11.42;100.00;99880.09;6271160;28;20134;-72
2022/10/01 09:26:13;;;;;;;3.10;2.03;;;;;;;11.49;100.00;99885.72;6266067;28;20049;-72
2022/10/01 09:29:20;;;;;;;3.75;2.20;;;;;;;11.49;100.00;99888.38;6251420;28;20064;-71
2022/10/01 09:32:26;;;;;;;4.95;2.08;;;;;;;11.49;100.00;99883.97;6259901;28;20115;-72
2022/10/01 09:35:37;;;;;;;4.43;2.35;;;;;;;11.55;100.00;99880.06;6270735;28;20532;-73
2022/10/01 09:38:41;;;;;;;3.20;1.88;;;;;;;11.63;100.00;99888.25;6261963;28;20145;-72
2022/10/01 09:41:45;;;;;;;3.22;1.92;;;;;;;11.64;100.00;99898.66;6221706;28;20520;-72
2022/10/01 09:44:46;;;;;;;3.72;2.70;;;;;;;11.68;100.00;99894.84;6221589;28;20560;-71
2022/10/01 09:47:51;;;;;;;6.38;2.55;;;;;;;11.71;100.00;99899.03;6222082;28;20127;-72
2022/10/01 09:50:57;;;;;;;3.50;2.70;;;;;;;11.73;100.00;99902.44;6221281;28;20514;-72
2022/10/01 09:54:04;;;;;;;3.20;2.47;;;;;;;11.81;100.00;99892.19;6221992;28;20563;-71
2022/10/01 09:57:10;;;;;;;3.35;2.40;;;;;;;11.86;100.00;99902.44;6220718;28;20402;-71
2022/10/01 10:00:18;;;;;;;5.45;2.65;;;;;;;11.86;100.00;99900.63;6231285;28;20417;-72
2022/10/01 10:03:24;;;;;;;2.88;2.35;;;;;;;11.91;100.00;99902.94;6238684;28;20058;-71
2022/10/01 10:06:28;;;;;;;2.70;2.22;;;;;;;11.92;100.00;99908.06;6241835;28;20049;-72
2022/10/01 10:09:32;;;;;;;3.72;2.50;;;;;;;11.99;100.00;99910.25;6269214;28;20064;-71
2022/10/01 10:12:35;;;;;;;2.60;2.38;;;;;;;12.06;100.00;99917.59;6270501;28;20056;-71
2022/10/01 10:15:40;;;;;;;2.70;2.38;;;;;;;12.13;100.00;99912.75;6270320;28;20508;-72
2022/10/01 10:18:41;;;;;;;2.40;2.17;;;;;;;12.20;100.00;99919.22;6270799;28;20076;-72
2022/10/01 10:21:51;;;;;;;2.95;2.40;;;;;;;12.25;100.00;99921.53;6270326;28;20045;-72
2022/10/01 10:24:56;;;;;;;2.63;2.30;;;;;;;12.29;100.00;99931.72;6270650;28;20056;-75
2022/10/01 10:28:01;;;;;;;4.88;2.22;;;;;;;12.33;100.00;99927.06;6266174;28;20061;-71
2022/10/01 10:31:02;;;;;;;3.25;2.10;;;;;;;12.34;100.00;99934.84;6269710;28;20041;-72
2022/10/01 10:34:08;;;;;;;5.78;2.55;;;;;;;12.37;100.00;99942.53;6270193;28;20056;-72
2022/10/01 10:37:14;;;;;;;3.90;2.03;;;;;;;12.42;100.00;99935.13;6274793;28;20428;-72
2022/10/01 10:40:19;;;;;;;2.50;2.00;;;;;;;12.43;100.00;99942.09;6274459;28;20413;-72
2022/10/01 10:43:25;;;;;;;6.32;2.20;;;;;;;12.50;100.00;99955.66;6273998;28;20057;-71
2022/10/01 10:46:30;;;;;;;2.88;1.95;;;;;;;12.55;100.00;99945.63;6274316;28;20076;-73
2022/10/01 10:49:35;;;;;;;3.00;1.95;;;;;;;12.61;100.00;99949.59;6274602;28;20401;-72
2022/10/01 10:52:37;;;;;;;5.00;2.33;;;;;;;12.59;100.00;99957.63;6274275;28;20048;-73
2022/10/01 10:55:39;;;;;;;5.57;2.72;;;;;;;12.59;100.00;99962.88;6273350;28;20053;-73
2022/10/01 10:58:44;;;;;;;4.57;2.47;;;;;;;12.56;100.00;99962.28;6266409;28;20055;-72
2022/10/01 11:01:49;;;;;;;7.57;3.10;;;;;;;12.55;100.00;99971.97;6273761;28;20119;-71
2022/10/01 11:04:53;;;;;;;2.95;2.20;;;;;;;12.55;100.00;99965.88;6273929;28;20408;-73
2022/10/01 11:07:58;;;;;;;2.85;2.28;;;;;;;12.56;100.00;99968.38;6274121;28;20057;-73
2022/10/01 11:11:08;;;;;;;3.50;2.92;;;;;;;12.59;100.00;99969.97;6273955;28;20055;-73
2022/10/01 11:14:28;;;;;;;2.40;2.20;;;;;;;12.60;100.00;99966.34;6273677;28;20126;-72
2022/10/01 11:17:57;;;;;;;3.47;2.45;;;;;;;12.71;100.00;99966.38;6274109;28;20049;-73
2022/10/01 11:21:13;;;;;;;7.80;2.88;;;;;;;13.00;100.00;99966.84;6273460;28;20051;-72
2022/10/01 11:24:32;;;;;;;3.45;2.45;;;;;;;13.32;100.00;99974.97;6273568;28;20052;-75
2022/10/01 11:27:42;;;;;;;3.65;2.90;;;;;;;13.54;100.00;99963.59;6272774;28;20428;-73
2022/10/01 11:30:54;;;;;;;4.60;2.40;;;;;;;13.68;100.00;99968.63;6273123;28;20056;-74
2022/10/01 11:34:10;;;;;;;4.30;2.25;;;;;;;13.80;100.00;99973.88;6273227;28;20542;-76
2022/10/01 11:37:29;;;;;;;1.60;1.50;;;;;;;13.87;100.00;99969.81;6273545;28;20511;-73
2022/10/01 11:40:36;;;;;;;1.75;1.65;;;;;;;14.16;100.00;99963.00;6273245;28;20060;-73
2022/10/01 11:43:43;;;;;;;4.90;1.98;;;;;;;14.43;100.00;99972.31;6273759;28;20056;-76
2022/10/01 11:46:53;;;;;;;3.35;2.30;;;;;;;14.77;100.00;99966.94;6273336;28;20098;-75
2022/10/01 11:49:58;;;;;;;2.03;1.52;;;;;;;14.97;100.00;99964.28;6273275;28;20071;-75
2022/10/01 11:53:06;;;;;;;6.25;1.50;;;;;;;15.09;100.00;99959.78;6273378;28;20179;-75
2022/10/01 11:59:38;;;;;;;2.05;1.27;;;;;;;15.57;100.00;99967.09;6273218;28;20052;-75
2022/10/01 12:02:51;;;;;;;1.20;1.10;;;;;;;15.40;100.00;99965.94;6272711;28;20057;-74
2022/10/01 12:05:55;;;;;;;1.10;1.00;;;;;;;15.31;100.00;99956.13;6272838;28;20049;-75
2022/10/01 12:09:01;;;;;;;2.00;1.00;;;;;;;15.53;100.00;99959.56;6272686;28;20049;-74
2022/10/01 12:12:07;;;;;;;1.73;0.80;;;;;;;15.84;100.00;99969.19;6272413;28;20049;-74
2022/10/01 12:15:16;;;;;;;3.58;0.90;;;;;;;15.87;100.00;99960.16;6272114;28;20060;-74
2022/10/01 12:18:27;;;;;;;2.75;0.90;;;;;;;16.02;100.00;99965.91;6272761;28;20060;-74
2022/10/01 12:21:35;;;;;;;1.55;0.88;;;;;;;16.17;100.00;99957.44;6272265;28;20546;-73
2022/10/01 12:24:41;;;;;;;1.50;0.70;;;;;;;16.34;100.00;99952.41;6270382;28;20496;-73
2022/10/01 12:27:54;;;;;;;8.15;0.80;;;;;;;16.23;100.00;99964.84;6267558;28;20067;-72
2022/10/01 12:31:02;;;;;;;0.88;0.70;;;;;;;15.90;100.00;99971.31;6271491;28;20067;-73
2022/10/01 12:34:15;;;;;;;2.30;0.70;;;;;;;15.48;100.00;99970.56;6281420;28;20049;-75
2022/10/01 12:37:28;;;;;;;1.52;0.80;;;;;;;15.53;100.00;99968.34;6271859;28;20059;-76
2022/10/01 12:40:36;;;;;;;1.25;0.73;;;;;;;15.34;100.00;99966.44;6272016;28;20048;-76
2022/10/01 12:43:54;;;;;;;7.65;2.25;;;;;;;15.26;100.00;99965.41;6271562;28;20049;-76
2022/10/01 12:47:08;;;;;;;1.33;1.05;;;;;;;15.51;100.00;99978.25;6272210;28;20045;-75
2022/10/01 12:50:22;;;;;;;6.70;0.80;;;;;;;15.86;100.00;99982.31;6268825;28;20052;-76
2022/10/01 12:53:31;;;;;;;3.47;0.80;;;;;;;15.82;100.00;99972.97;6270046;28;20045;-74
2022/10/01 12:56:36;;;;;;;;;;;;;;;15.59;100.00;99964.34;6271432;28;20048;-74
2022/10/01 12:59:51;;;;;;;0.88;0.55;;;;;;;15.35;100.00;99959.34;6271319;28;19921;-73
2022/10/01 13:03:17;;;;;;;1.95;0.75;;;;;;;15.22;100.00;99973.63;6271497;28;20056;-76
2022/10/01 13:06:35;;;;;;;3.85;0.90;;;;;;;15.08;100.00;99986.34;6271556;28;20049;-76
2022/10/01 13:09:46;;;;;;;1.10;0.98;;;;;;;14.93;100.00;99991.13;6271484;28;20075;-74
2022/10/01 13:13:00;;;;;;;2.60;0.50;;;;;;;14.88;100.00;100003.91;6271333;28;20052;-72
2022/10/01 13:16:09;;;;;;;2.35;0.73;;;;;;;14.74;100.00;100014.78;6271114;28;20049;-73
2022/10/01 13:19:17;;;;;;;3.38;0.70;;;;;;;14.67;100.00;100017.09;6271461;28;20053;-75
2022/10/01 13:22:31;;;;;;;1.03;0.50;;;;;;;14.68;100.00;100024.06;6271100;28;20515;-72
2022/10/01 13:25:39;;;;;;;1.88;0.50;;;;;;;14.53;100.00;100047.28;6271000;28;20052;-75
2022/10/01 13:28:58;;;;;;;3.03;0.50;;;;;;;14.27;100.00;100051.19;6270156;28;20052;-75
2022/10/01 13:32:02;;;;;;;3.72;0.77;;;;;;;13.71;100.00;100060.78;6270577;28;20048;-74
2022/10/01 13:35:23;;;;;;;2.97;0.50;;;;;;;13.39;100.00;100054.50;6270872;28;20130;-75
2022/10/01 13:38:39;;;;;;;2.75;0.60;;;;;;;13.25;100.00;100067.91;6271828;28;20488;-74
2022/10/01 13:41:40;;;;;;;0.75;0.43;;;;;;;13.08;100.00;100062.09;6271113;28;20048;-74
2022/10/01 13:44:42;;;;;;;3.35;1.08;;;;;;;12.82;100.00;100061.38;6268701;28;20052;-73
2022/10/01 13:47:43;;;;;;;0.70;0.50;;;;;;;12.61;100.00;100055.03;6270469;28;20048;-73
2022/10/01 13:51:01;;;;;;;0.60;0.40;;;;;;;12.63;100.00;100063.69;6270223;28;20049;-73
2022/10/01 13:54:15;;;;;;;1.05;0.65;;;;;;;12.53;100.00;100065.28;6270572;28;20037;-74
2022/10/01 13:57:32;;;;;;;1.45;0.90;;;;;;;12.37;100.00;100068.19;6271024;28;20053;-73
2022/10/01 14:00:34;;;;;;;7.90;1.60;;;;;;;12.33;100.00;100091.28;6269933;28;20064;-73
2022/10/01 14:03:48;;;;;;;1.30;0.80;;;;;;;12.38;100.00;100088.31;6262555;28;20053;-73
2022/10/01 14:06:52;;;;;;;1.23;0.93;;;;;;;12.47;100.00;100103.47;6270823;28;20049;-73
2022/10/01 14:10:00;;;;;;;3.30;0.70;;;;;;;12.72;100.00;100101.69;6272287;28;20049;-73
2022/10/01 14:16:23;;;;;;;1.00;0.77;;;;;;;13.13;100.00;100107.41;6269272;28;20049;-74
2022/10/01 14:19:27;;;;;;;0.73;0.60;;;;;;;13.24;100.00;100122.47;6265814;28;20177;-74
2022/10/01 14:22:48;;;;;;;4.20;0.70;;;;;;;13.33;100.00;100123.59;6274859;28;20056;-75
2022/10/01 14:25:58;;;;;;;3.05;0.65;;;;;;;13.23;100.00;100135.78;6283947;28;20048;-78
2022/10/01 14:29:13;;;;;;;0.60;0.38;;;;;;;13.06;100.00;100139.63;6279560;28;20052;-76
2022/10/01 14:32:26;;;;;;;0.35;0.35;;;;;;;13.04;100.00;100146.84;6283862;28;20390;-77
2022/10/01 14:35:32;;;;;;;0.95;0.40;;;;;;;13.07;100.00;100157.13;6296911;28;20047;-71